Time;durP1;ratioP1;P1;durP2;ratioP2;P2;SDS_P1;SDS_P2;PMS_P1;PMS_P2;Temp;Humidity;BMP_temperature;BMP_pressure;BME280_temperature;BME280_humidity;BME280_pressure;Samples;Min_cycle;Max_cycle;Signal;HPM_P1;HPM_P2
2021/12/02 00:02:16;;;;;;;3.55;1.55;;;;;;;15.00;62.60;99814.72;5045766;28;20447;-70
2021/12/02 00:04:43;;;;;;;6.55;1.80;;;;;;;15.01;62.14;99819.91;5043778;28;20038;-69
2021/12/02 00:07:09;;;;;;;2.95;1.45;;;;;;;15.00;62.10;99817.34;5042112;28;20449;-71
2021/12/02 00:09:36;;;;;;;3.03;1.73;;;;;;;14.95;62.31;99813.22;5034767;28;20121;-70
2021/12/02 00:12:02;;;;;;;3.85;1.67;;;;;;;14.98;61.38;99820.03;5034981;28;20117;-70
2021/12/02 00:14:29;;;;;;;7.93;2.17;;;;;;;15.01;62.07;99816.44;5017516;28;20503;-71
2021/12/02 00:22:10;;;;;;;2.97;1.48;;;;;;;14.93;62.57;99806.34;5034819;28;20137;-71
2021/12/02 00:24:38;;;;;;;3.72;1.63;;;;;;;14.98;62.33;99806.97;5034640;28;20053;-71
2021/12/02 00:27:07;;;;;;;3.10;1.63;;;;;;;14.96;62.33;99808.81;5034925;28;20080;-71
2021/12/02 00:29:35;;;;;;;3.00;1.40;;;;;;;14.87;62.58;99798.84;5034997;28;20033;-71
2021/12/02 00:32:06;;;;;;;4.03;1.42;;;;;;;14.93;62.77;99803.75;5034542;28;20440;-71
2021/12/02 00:34:32;;;;;;;3.85;1.55;;;;;;;14.93;62.50;99798.50;5034577;28;20486;-70
2021/12/02 00:37:01;;;;;;;2.53;1.55;;;;;;;14.98;62.55;99806.97;5034360;28;20033;-72
2021/12/02 00:39:27;;;;;;;2.72;1.50;;;;;;;14.82;62.63;99775.56;5034495;28;20030;-69
2021/12/02 00:41:55;;;;;;;4.45;1.50;;;;;;;14.95;61.92;99808.00;5034545;28;20060;-71
2021/12/02 00:44:20;;;;;;;2.92;1.40;;;;;;;14.89;62.28;99797.81;5034228;28;20071;-70
2021/12/02 00:46:47;;;;;;;4.30;1.70;;;;;;;14.94;62.43;99798.47;5034149;28;20190;-72
2021/12/02 00:49:17;;;;;;;4.05;1.58;;;;;;;14.90;62.24;99796.06;5034520;28;20634;-70
2021/12/02 00:51:47;;;;;;;2.30;1.30;;;;;;;14.91;62.43;99803.81;5034319;28;20029;-70
2021/12/02 00:54:13;;;;;;;4.38;1.70;;;;;;;14.87;62.43;99794.44;5034643;28;20030;-70
2021/12/02 00:56:40;;;;;;;3.28;1.52;;;;;;;14.92;62.53;99802.91;5034412;28;20040;-70
2021/12/02 00:59:07;;;;;;;2.30;1.40;;;;;;;14.92;62.94;99802.91;5033877;28;20112;-69
2021/12/02 01:01:36;;;;;;;1.55;1.27;;;;;;;14.91;62.68;99806.44;5034024;28;20133;-71
2021/12/02 01:04:08;;;;;;;4.57;1.70;;;;;;;14.89;62.37;99808.28;5033746;28;20534;-70
2021/12/02 01:06:34;;;;;;;2.55;1.42;;;;;;;14.89;62.56;99812.66;5033552;28;20095;-71
2021/12/02 01:09:00;;;;;;;2.28;1.45;;;;;;;14.90;62.65;99814.38;5033704;28;20049;-70
2021/12/02 01:11:25;;;;;;;2.58;1.20;;;;;;;14.86;62.22;99805.81;5033876;28;20036;-70
2021/12/02 01:13:51;;;;;;;3.40;1.57;;;;;;;14.85;62.76;99804.16;5033980;28;20472;-70
2021/12/02 01:16:18;;;;;;;6.38;1.50;;;;;;;14.88;62.74;99811.81;5034187;28;20033;-70
2021/12/02 01:18:44;;;;;;;2.15;1.40;;;;;;;14.86;62.64;99813.66;5033876;28;20075;-70
2021/12/02 01:21:15;;;;;;;2.77;1.40;;;;;;;14.83;62.61;99808.59;5016159;28;20057;-70
2021/12/02 01:23:41;;;;;;;3.17;1.55;;;;;;;14.87;62.72;99810.13;5033501;28;20036;-70
2021/12/02 01:26:08;;;;;;;2.00;1.30;;;;;;;14.86;62.85;99816.25;5033599;28;20494;-71
2021/12/02 01:28:37;;;;;;;2.83;1.55;;;;;;;14.87;62.59;99819.75;5033584;28;20075;-71
2021/12/02 01:31:03;;;;;;;3.05;1.20;;;;;;;14.86;62.67;99818.03;5016440;28;20033;-71
2021/12/02 01:33:29;;;;;;;4.05;1.40;;;;;;;14.80;62.40;99814.84;5015564;28;20099;-71
2021/12/02 01:36:00;;;;;;;2.78;1.20;;;;;;;14.82;62.61;99820.78;5016096;28;20029;-72
2021/12/02 01:38:27;;;;;;;2.60;1.45;;;;;;;14.84;62.26;99823.34;5033634;28;20033;-71
2021/12/02 01:40:54;;;;;;;2.35;1.30;;;;;;;14.84;62.28;99825.97;5033545;28;20037;-71
2021/12/02 01:43:22;;;;;;;3.47;1.40;;;;;;;14.79;62.32;99820.09;5033276;28;20041;-73
2021/12/02 01:45:48;;;;;;;3.70;1.42;;;;;;;14.85;61.75;99840.72;5033138;28;20040;-70
2021/12/02 01:48:22;;;;;;;4.13;1.33;;;;;;;14.85;61.88;99837.25;5015497;28;20052;-71
2021/12/02 01:51:06;;;;;;;2.67;1.40;;;;;;;14.77;62.07;99832.38;5033316;28;20049;-71
2021/12/02 01:53:34;;;;;;;2.08;1.40;;;;;;;14.79;62.12;99836.63;5033337;28;20048;-70
2021/12/02 01:56:10;;;;;;;3.38;1.10;;;;;;;14.79;62.26;99841.00;5032996;28;20930;-70
2021/12/02 01:59:05;;;;;;;2.45;1.23;;;;;;;14.83;62.19;99837.34;5033106;28;20025;-71
2021/12/02 02:01:34;;;;;;;2.25;1.20;;;;;;;14.79;62.02;99823.59;5033308;28;20408;-70
2021/12/02 02:04:00;;;;;;;1.77;1.02;;;;;;;14.75;62.14;99819.41;5032887;28;20087;-72
2021/12/02 02:06:44;;;;;;;2.55;1.33;;;;;;;14.79;62.11;99817.50;5033139;28;20087;-72
2021/12/02 02:09:09;;;;;;;2.85;1.50;;;;;;;14.76;62.04;99822.84;5032615;28;20047;-69
2021/12/02 02:11:35;;;;;;;1.70;1.17;;;;;;;14.81;62.08;99826.09;5033211;28;20426;-71
2021/12/02 02:14:01;;;;;;;1.33;1.10;;;;;;;14.79;62.13;99827.94;5033016;28;20112;-71
2021/12/02 02:16:28;;;;;;;1.80;1.10;;;;;;;14.77;62.21;99820.19;5032998;28;20387;-69
2021/12/02 02:18:54;;;;;;;3.53;1.30;;;;;;;14.78;62.16;99821.03;5032436;28;20418;-70
2021/12/02 02:21:23;;;;;;;2.00;1.13;;;;;;;14.73;62.17;99825.66;5032893;28;20111;-70
2021/12/02 02:23:51;;;;;;;1.77;1.30;;;;;;;14.80;61.95;99829.63;5032821;28;20268;-70
2021/12/02 02:26:27;;;;;;;1.83;1.20;;;;;;;14.78;62.10;99821.88;5033525;28;20053;-70
2021/12/02 02:28:53;;;;;;;2.78;1.20;;;;;;;14.77;62.26;99829.78;5032843;28;20392;-71
2021/12/02 02:31:19;;;;;;;;;;;;;;;14.85;62.00;99825.03;5015664;28;20037;-70
2021/12/02 02:33:50;;;;;;;1.75;1.00;;;;;;;14.78;62.19;99823.63;5032789;28;19920;-70
2021/12/02 02:36:17;;;;;;;4.05;1.30;;;;;;;14.72;61.95;99814.34;5032523;28;20041;-71
2021/12/02 02:38:54;;;;;;;2.60;1.30;;;;;;;14.72;62.09;99816.13;5032662;28;20100;-71
2021/12/02 02:41:21;;;;;;;3.80;1.00;;;;;;;14.74;61.76;99825.56;5033035;28;20037;-71
2021/12/02 02:43:51;;;;;;;1.88;1.10;;;;;;;14.74;62.09;99827.34;5032603;28;20064;-69
2021/12/02 02:46:38;;;;;;;3.28;1.20;;;;;;;14.77;62.35;99827.16;5032402;28;20300;-71
2021/12/02 02:49:05;;;;;;;;;;;;;;;14.83;62.04;99809.44;5033404;28;20463;-72
2021/12/02 02:51:31;;;;;;;1.52;1.05;;;;;;;14.73;61.98;99818.66;5032534;28;19913;-70
2021/12/02 02:54:07;;;;;;;3.28;1.13;;;;;;;14.74;62.01;99824.72;5032794;28;20065;-69
2021/12/02 02:56:37;;;;;;;2.00;1.20;;;;;;;14.72;61.92;99813.50;5032372;28;20577;-71
2021/12/02 03:09:39;;;;;;;2.03;1.02;;;;;;;14.63;61.81;99814.75;5032227;28;20498;-72
2021/12/02 03:12:29;;;;;;;2.15;1.10;;;;;;;14.64;61.86;99822.50;5032628;28;20468;-70
2021/12/02 03:17:29;;;;;;;1.50;0.98;;;;;;;14.55;61.93;99820.34;5032264;28;20044;-70
2021/12/02 03:19:54;;;;;;;2.65;1.02;;;;;;;14.58;61.77;99835.88;5032099;28;20029;-70
2021/12/02 03:22:20;;;;;;;2.50;1.07;;;;;;;14.66;61.89;99838.94;5032117;28;20044;-71
2021/12/02 03:24:45;;;;;;;1.93;1.00;;;;;;;14.63;61.93;99836.50;5032435;28;20038;-71
2021/12/02 03:27:11;;;;;;;3.33;1.00;;;;;;;14.64;61.97;99846.00;5032414;28;20026;-72
2021/12/02 03:29:37;;;;;;;2.15;1.15;;;;;;;14.67;61.92;99839.84;5032559;28;20030;-70
2021/12/02 03:32:03;;;;;;;2.57;1.10;;;;;;;14.66;61.81;99840.72;5036046;28;20136;-70
2021/12/02 03:34:29;;;;;;;2.28;0.95;;;;;;;14.66;61.74;99846.78;5036175;28;20103;-69
2021/12/02 03:36:55;;;;;;;1.20;0.73;;;;;;;14.58;61.43;99838.50;5035660;28;20033;-69
2021/12/02 03:39:21;;;;;;;1.60;1.03;;;;;;;14.64;61.71;99845.19;5036196;28;20037;-71
2021/12/02 03:41:46;;;;;;;2.17;1.07;;;;;;;14.65;61.71;99846.88;5035529;28;20025;-71
2021/12/02 03:44:12;;;;;;;2.33;1.10;;;;;;;14.64;61.64;99845.19;5035792;28;20045;-68
2021/12/02 03:46:39;;;;;;;3.03;1.00;;;;;;;14.58;61.84;99835.88;5035650;28;20282;-70
2021/12/02 03:49:05;;;;;;;1.70;1.20;;;;;;;14.62;61.81;99850.47;5035268;28;20032;-70
2021/12/02 03:51:31;;;;;;;1.27;0.83;;;;;;;14.63;61.96;99854.78;5035350;28;20033;-71
2021/12/02 03:53:58;;;;;;;2.25;1.10;;;;;;;14.58;61.94;99846.31;5035616;28;20095;-71
2021/12/02 03:56:24;;;;;;;1.23;0.77;;;;;;;14.63;61.78;99846.09;5035366;28;20056;-71
2021/12/02 03:58:51;;;;;;;1.70;0.77;;;;;;;14.62;61.96;99849.63;5035474;28;20040;-69
2021/12/02 04:01:17;;;;;;;1.92;0.90;;;;;;;14.54;62.06;99834.31;5035180;28;20395;-70
2021/12/02 04:03:43;;;;;;;2.80;0.73;;;;;;;14.62;61.85;99847.00;5035106;28;20042;-70
2021/12/02 04:06:09;;;;;;;1.80;0.88;;;;;;;14.58;61.73;99835.03;5035102;28;20112;-71
2021/12/02 04:08:49;;;;;;;0.98;0.80;;;;;;;14.63;61.72;99840.88;5035165;28;20501;-71
2021/12/02 04:13:57;;;;;;;2.53;0.77;;;;;;;14.56;61.80;99822.03;5035103;28;20065;-71
2021/12/02 04:16:23;;;;;;;1.70;0.73;;;;;;;14.54;61.89;99820.44;5034957;28;20033;-70
2021/12/02 04:18:48;;;;;;;3.42;1.05;;;;;;;14.59;61.70;99827.13;5035109;28;20037;-71
2021/12/02 04:21:14;;;;;;;1.07;0.80;;;;;;;14.61;61.80;99835.75;5034964;28;20034;-71
2021/12/02 04:23:40;;;;;;;1.55;1.02;;;;;;;14.58;61.84;99832.44;5035157;28;20033;-71
2021/12/02 04:26:05;;;;;;;0.90;0.73;;;;;;;14.52;61.76;99821.34;5034636;28;20041;-70
2021/12/02 04:28:31;;;;;;;1.27;0.73;;;;;;;14.57;61.69;99838.56;5017323;28;20033;-71
2021/12/02 04:30:57;;;;;;;2.08;0.95;;;;;;;14.54;61.74;99842.16;5034773;28;20121;-70
2021/12/02 04:33:22;;;;;;;1.57;0.90;;;;;;;14.57;61.67;99854.25;5034683;28;20479;-71
2021/12/02 04:35:48;;;;;;;1.77;0.97;;;;;;;14.59;61.85;99868.03;5034792;28;20034;-70
2021/12/02 04:38:13;;;;;;;1.50;1.00;;;;;;;14.59;61.46;99866.28;5034559;28;20034;-71
2021/12/02 04:40:42;;;;;;;0.90;0.80;;;;;;;14.52;61.58;99859.69;5034481;28;20121;-71
2021/12/02 04:43:08;;;;;;;1.50;0.75;;;;;;;14.47;61.42;99859.88;5033735;28;20148;-72
2021/12/02 04:45:33;;;;;;;1.85;0.70;;;;;;;14.55;61.42;99866.50;5034140;28;20487;-72
2021/12/02 04:47:58;;;;;;;2.30;1.00;;;;;;;14.52;61.21;99872.72;5034194;28;20128;-71
2021/12/02 04:50:24;;;;;;;2.83;0.80;;;;;;;14.58;61.11;99872.44;5016749;28;20076;-70
2021/12/02 04:52:50;;;;;;;1.53;0.77;;;;;;;14.56;61.14;99866.44;5034441;28;20030;-70
2021/12/02 04:55:15;;;;;;;1.15;0.68;;;;;;;14.51;61.33;99855.38;5034380;28;20029;-69
2021/12/02 04:57:41;;;;;;;1.00;0.60;;;;;;;14.49;61.19;99862.44;5016643;28;20478;-71
2021/12/02 05:00:07;;;;;;;1.83;0.67;;;;;;;14.56;61.06;99878.66;5000062;28;20537;-70
2021/12/02 05:02:32;;;;;;;1.05;0.50;;;;;;;14.50;61.48;99864.94;5033927;28;20124;-71
2021/12/02 05:04:58;;;;;;;3.07;0.70;;;;;;;14.54;61.44;99875.25;5016550;28;20451;-71
2021/12/02 05:07:23;;;;;;;2.67;0.70;;;;;;;14.52;61.37;99873.56;5033903;28;20108;-70
2021/12/02 05:09:48;;;;;;;0.73;0.60;;;;;;;14.54;61.16;99875.25;5033731;28;20045;-70
2021/12/02 05:12:14;;;;;;;1.67;0.70;;;;;;;14.54;61.53;99889.16;5032830;28;20464;-70
2021/12/02 05:14:39;;;;;;;3.10;1.10;;;;;;;14.52;61.25;99896.22;5033179;28;20478;-69
2021/12/02 05:17:05;;;;;;;2.63;0.83;;;;;;;14.50;61.19;99898.06;5014939;28;20033;-73
2021/12/02 05:19:30;;;;;;;1.33;0.60;;;;;;;14.51;61.08;99905.81;5033126;28;20036;-71
2021/12/02 05:21:55;;;;;;;1.20;0.70;;;;;;;14.44;60.85;99899.19;5015493;28;20140;-71
2021/12/02 05:24:21;;;;;;;2.37;0.90;;;;;;;14.51;60.87;99911.03;5033233;28;20356;-72
2021/12/02 05:26:46;;;;;;;1.73;0.60;;;;;;;14.51;60.92;99902.38;5032592;28;20073;-71
2021/12/02 05:29:12;;;;;;;1.23;0.90;;;;;;;14.50;60.91;99901.50;5032965;28;20380;-71
2021/12/02 05:31:37;;;;;;;2.33;0.90;;;;;;;14.50;60.75;99904.13;5032531;28;20030;-73
2021/12/02 05:34:03;;;;;;;1.00;0.73;;;;;;;14.39;61.27;99877.66;5032706;28;20040;-71
2021/12/02 05:36:28;;;;;;;3.17;0.90;;;;;;;14.47;61.01;99893.81;5032663;28;20033;-70
2021/12/02 05:38:53;;;;;;;2.43;1.03;;;;;;;14.45;61.14;99886.97;5032985;28;20088;-71
2021/12/02 05:41:19;;;;;;;0.67;0.53;;;;;;;14.40;61.19;99873.31;5032545;28;20036;-71
2021/12/02 05:43:44;;;;;;;1.77;0.87;;;;;;;14.48;61.28;99886.84;5032478;28;20398;-71
2021/12/02 05:46:10;;;;;;;1.20;0.77;;;;;;;14.44;61.08;99886.16;5032610;28;20021;-71
2021/12/02 05:48:35;;;;;;;2.53;1.00;;;;;;;14.47;61.06;99890.38;5032506;28;20044;-71
2021/12/02 05:51:00;;;;;;;1.87;0.80;;;;;;;14.46;60.93;99906.94;5015002;28;20036;-71
2021/12/02 05:53:26;;;;;;;1.37;0.60;;;;;;;14.45;61.12;99911.34;5032179;28;20044;-70
2021/12/02 05:55:51;;;;;;;1.47;0.80;;;;;;;14.46;61.15;99910.41;5032173;28;20022;-70
2021/12/02 05:58:16;;;;;;;0.97;0.77;;;;;;;14.42;61.33;99898.41;5041152;28;20033;-70
2021/12/02 06:00:42;;;;;;;2.50;0.87;;;;;;;14.46;61.45;99904.34;5042878;28;20036;-72
2021/12/02 06:03:07;;;;;;;0.97;0.43;;;;;;;14.45;61.43;99900.03;5051966;28;20025;-72
2021/12/02 06:05:33;;;;;;;2.33;0.80;;;;;;;14.44;61.23;99895.72;5052418;28;20028;-71
2021/12/02 06:08:01;;;;;;;2.37;0.70;;;;;;;14.46;61.23;99906.94;5052353;28;20033;-71
2021/12/02 06:10:28;;;;;;;2.00;0.85;;;;;;;14.46;60.99;99904.34;5015561;28;1073383;-67
2021/12/02 06:12:53;;;;;;;2.00;0.65;;;;;;;14.43;61.17;99899.25;5053254;28;20402;-70
2021/12/02 06:15:19;;;;;;;1.77;0.70;;;;;;;14.48;61.45;99902.50;5052648;28;20307;-69
2021/12/02 06:17:45;;;;;;;0.80;0.50;;;;;;;14.46;61.28;99906.94;5047653;28;20033;-71
2021/12/02 06:20:12;;;;;;;1.47;0.73;;;;;;;14.42;61.17;99900.16;5042331;28;20057;-70
2021/12/02 06:22:38;;;;;;;1.08;0.68;;;;;;;14.44;61.50;99909.63;5035809;28;20112;-70
2021/12/02 06:27:43;;;;;;;2.30;0.63;;;;;;;14.45;61.16;99921.78;5032908;28;20041;-71
2021/12/02 06:30:09;;;;;;;6.00;0.80;;;;;;;14.44;61.30;99927.91;5037858;28;20045;-68
2021/12/02 06:32:34;;;;;;;4.25;0.90;;;;;;;14.42;61.19;99928.88;5040469;28;20257;-71
2021/12/02 06:35:00;;;;;;;2.00;0.83;;;;;;;14.44;61.15;99927.91;5035165;28;20039;-69
2021/12/02 06:37:26;;;;;;;6.53;1.23;;;;;;;14.39;60.64;99913.38;5041440;28;20112;-71
2021/12/02 06:39:52;;;;;;;1.83;0.97;;;;;;;14.29;57.82;99905.97;5041728;28;20494;-69
2021/12/02 06:42:17;;;;;;;5.18;0.98;;;;;;;14.30;58.96;99925.91;5043055;28;20033;-71
2021/12/02 06:44:43;;;;;;;3.47;0.77;;;;;;;14.24;58.52;99928.81;5040508;28;20118;-72
2021/12/02 06:47:09;;;;;;;2.37;0.80;;;;;;;14.25;59.59;99922.69;5051681;28;20580;-69
2021/12/02 06:49:35;;;;;;;2.87;1.17;;;;;;;14.16;60.12;99917.88;5051336;28;20466;-71
2021/12/02 06:52:01;;;;;;;2.70;0.50;;;;;;;14.21;59.78;99944.59;5052701;28;20382;-70
2021/12/02 06:54:27;;;;;;;4.70;0.82;;;;;;;14.27;59.70;99957.38;5051695;28;20028;-68
2021/12/02 06:56:53;;;;;;;1.47;0.63;;;;;;;14.26;59.51;99963.53;5045099;28;20124;-72
2021/12/02 06:59:19;;;;;;;1.75;0.85;;;;;;;14.25;59.33;99946.16;5043232;28;20477;-70
2021/12/02 07:01:45;;;;;;;4.30;0.90;;;;;;;14.26;59.78;99945.25;5052369;28;20167;-72
2021/12/02 07:04:11;;;;;;;5.00;0.85;;;;;;;14.22;59.37;99946.28;5052362;28;20112;-68
2021/12/02 07:06:38;;;;;;;1.67;0.77;;;;;;;14.26;59.74;99968.75;5054526;28;20071;-70
2021/12/02 07:09:04;;;;;;;2.50;1.13;;;;;;;14.26;59.64;99970.50;5055812;28;20510;-73
2021/12/02 07:11:30;;;;;;;3.00;0.70;;;;;;;14.17;59.68;99954.34;5042664;28;20050;-70
2021/12/02 07:14:00;;;;;;;3.63;0.90;;;;;;;14.25;59.35;99980.09;5045159;28;20474;-68
2021/12/02 07:16:26;;;;;;;2.65;0.80;;;;;;;14.25;59.55;99974.88;5043673;28;20052;-71
2021/12/02 07:18:57;;;;;;;1.70;0.60;;;;;;;14.20;59.65;99975.09;5044788;28;20029;-70
2021/12/02 07:21:24;;;;;;;3.90;0.82;;;;;;;14.21;59.38;99984.59;5045823;28;20037;-72
2021/12/02 07:23:49;;;;;;;3.13;1.27;;;;;;;14.23;59.14;99991.53;5046481;28;20036;-70
2021/12/02 07:26:15;;;;;;;2.63;0.87;;;;;;;14.17;59.29;99980.44;5044639;28;20033;-70
2021/12/02 07:28:40;;;;;;;2.20;0.63;;;;;;;14.24;59.26;99972.34;5045772;28;20029;-71
2021/12/02 07:31:06;;;;;;;1.47;0.73;;;;;;;14.24;59.14;99980.16;5028257;28;20084;-71
2021/12/02 07:33:37;;;;;;;1.60;0.60;;;;;;;14.23;59.29;99983.69;5046878;28;20040;-72
2021/12/02 07:36:03;;;;;;;1.90;0.88;;;;;;;14.19;58.88;99967.31;5049972;28;20044;-71
2021/12/02 07:38:29;;;;;;;1.25;0.60;;;;;;;14.20;59.10;99976.81;5046887;28;20033;-70
2021/12/02 07:40:54;;;;;;;1.73;0.60;;;;;;;14.23;59.26;99981.09;5021995;28;20034;-71
2021/12/02 07:43:21;;;;;;;1.23;0.73;;;;;;;14.24;59.21;99994.06;5017668;28;20042;-70
2021/12/02 07:45:47;;;;;;;5.60;1.90;;;;;;;13.92;51.63;99987.63;5035898;28;20128;-70
2021/12/02 07:48:14;;;;;;;3.20;1.13;;;;;;;13.85;55.93;99993.09;5042977;28;20526;-69
2021/12/02 07:50:39;;;;;;;;;;;;;;;13.97;56.29;99994.34;5029097;28;20025;-68
2021/12/02 07:53:07;;;;;;;1.97;1.10;;;;;;;13.92;57.25;100003.28;5044272;28;19913;-68
2021/12/02 07:55:37;;;;;;;2.55;0.98;;;;;;;13.82;57.45;99989.78;5044619;28;20104;-68
2021/12/02 07:58:06;;;;;;;0.98;0.70;;;;;;;13.93;57.54;99992.78;5046419;28;20047;-68
2021/12/02 08:00:32;;;;;;;2.55;1.08;;;;;;;13.98;57.24;99997.81;5055192;28;20383;-68
2021/12/02 08:02:57;;;;;;;2.70;1.00;;;;;;;14.03;57.58;100009.75;5037686;28;20044;-69
2021/12/02 08:05:26;;;;;;;3.53;0.70;;;;;;;14.01;57.28;100003.72;5055599;28;20064;-68
2021/12/02 08:07:52;;;;;;;3.28;0.95;;;;;;;14.02;57.57;99991.53;5055329;28;20029;-67
2021/12/02 08:10:19;;;;;;;3.72;0.80;;;;;;;14.10;57.44;100010.31;5037221;28;20080;-69
2021/12/02 08:12:47;;;;;;;3.22;1.30;;;;;;;14.13;57.21;100011.94;5055743;28;20403;-67
2021/12/02 08:15:15;;;;;;;3.05;0.90;;;;;;;14.14;56.91;100003.19;5054810;28;20033;-68
2021/12/02 08:17:40;;;;;;;2.10;1.15;;;;;;;14.15;57.17;100012.72;5036598;28;20044;-69
2021/12/02 08:20:06;;;;;;;3.80;1.00;;;;;;;14.18;57.38;100023.03;5055150;28;20033;-68
2021/12/02 08:22:32;;;;;;;5.82;1.08;;;;;;;14.19;57.69;100020.34;5054449;28;20354;-68
2021/12/02 08:24:58;;;;;;;3.70;1.20;;;;;;;14.15;57.65;100026.63;5055009;28;20026;-68
2021/12/02 08:27:24;;;;;;;3.55;1.05;;;;;;;14.21;57.35;100035.94;5055188;28;20028;-69
2021/12/02 08:29:49;;;;;;;3.87;1.10;;;;;;;14.18;57.52;100023.88;5055022;28;20458;-68
2021/12/02 08:32:15;;;;;;;2.37;0.90;;;;;;;14.24;57.68;100035.81;5055245;28;20033;-68
2021/12/02 08:34:40;;;;;;;2.67;0.90;;;;;;;14.26;57.53;100031.38;5054863;28;20025;-69
2021/12/02 08:37:08;;;;;;;4.67;1.23;;;;;;;14.22;57.86;100027.19;5054769;28;20056;-67
2021/12/02 08:39:34;;;;;;;2.95;1.00;;;;;;;14.29;57.61;100036.47;5054655;28;20029;-69
2021/12/02 08:42:02;;;;;;;4.57;1.17;;;;;;;14.30;57.98;100050.34;5044863;28;20116;-69
2021/12/02 08:44:30;;;;;;;2.53;1.10;;;;;;;14.33;57.61;100055.44;5044801;28;20032;-69
2021/12/02 08:46:55;;;;;;;1.83;1.10;;;;;;;14.34;57.94;100067.59;5026026;28;20037;-67
2021/12/02 08:49:22;;;;;;;2.00;0.90;;;;;;;14.34;58.26;100073.66;5027337;28;20033;-68
2021/12/02 08:51:47;;;;;;;1.92;0.75;;;;;;;14.35;58.42;100093.63;5044160;28;20045;-68
2021/12/02 08:54:14;;;;;;;1.20;0.80;;;;;;;14.40;58.31;100095.19;5054593;28;20097;-68
2021/12/02 08:56:40;;;;;;;2.92;0.70;;;;;;;14.41;58.27;100095.13;5054776;28;20021;-69
2021/12/02 08:59:06;;;;;;;2.15;0.73;;;;;;;14.43;58.26;100100.25;5036779;28;20399;-69
2021/12/02 09:01:33;;;;;;;2.30;0.95;;;;;;;14.45;58.28;100106.25;5054486;28;20036;-69
2021/12/02 09:03:58;;;;;;;2.78;0.85;;;;;;;14.33;58.01;100084.16;5052411;28;20037;-68
2021/12/02 09:06:24;;;;;;;2.67;1.00;;;;;;;14.34;58.15;100089.31;5034295;28;20037;-68
2021/12/02 09:08:51;;;;;;;2.53;1.00;;;;;;;14.41;57.71;100104.72;5034358;28;20415;-66
2021/12/02 09:11:17;;;;;;;2.58;1.00;;;;;;;14.38;57.86;100104.84;5033913;28;20114;-69
2021/12/02 09:13:42;;;;;;;1.80;0.70;;;;;;;14.42;58.28;100120.31;5034138;28;20050;-69
2021/12/02 09:16:07;;;;;;;2.50;0.83;;;;;;;14.42;57.87;100116.81;5016706;28;20037;-69
2021/12/02 09:18:33;;;;;;;1.47;0.90;;;;;;;14.44;57.99;100120.22;5034171;28;20041;-69
2021/12/02 09:20:59;;;;;;;3.23;1.20;;;;;;;14.42;58.41;100122.06;5038562;28;20020;-68
2021/12/02 09:23:25;;;;;;;4.00;1.10;;;;;;;14.40;58.00;100122.13;5017478;28;20121;-68
2021/12/02 09:25:51;;;;;;;1.52;0.80;;;;;;;14.44;58.04;100133.28;5033982;28;20033;-69
2021/12/02 09:28:17;;;;;;;2.97;1.17;;;;;;;14.43;57.84;100139.41;5033478;28;20041;-69
2021/12/02 09:30:42;;;;;;;2.65;0.88;;;;;;;14.43;57.69;100147.25;5033995;28;20044;-68
2021/12/02 09:33:08;;;;;;;3.70;1.03;;;;;;;14.41;57.81;100134.28;5047136;28;20467;-67
2021/12/02 09:35:35;;;;;;;2.50;1.00;;;;;;;14.43;57.98;100145.50;5051310;28;20033;-71
2021/12/02 09:38:01;;;;;;;4.28;1.40;;;;;;;14.42;57.75;100133.34;5018760;28;20361;-69
2021/12/02 09:40:26;;;;;;;3.83;1.23;;;;;;;14.43;58.00;100144.63;5051753;28;20035;-70
2021/12/02 09:42:51;;;;;;;2.53;0.93;;;;;;;14.42;58.05;100141.19;5036012;28;20060;-70
2021/12/02 09:45:17;;;;;;;4.20;1.20;;;;;;;14.43;58.38;100134.19;5034088;28;20529;-70
2021/12/02 09:47:46;;;;;;;2.43;1.00;;;;;;;14.43;57.84;100135.06;5035377;28;20090;-70
2021/12/02 09:50:18;;;;;;;2.47;1.27;;;;;;;14.48;57.93;100140.06;5052309;28;20025;-70
2021/12/02 09:52:44;;;;;;;3.63;1.40;;;;;;;14.48;58.00;100137.47;5034986;28;20631;-70
2021/12/02 09:55:21;;;;;;;2.35;1.10;;;;;;;14.47;58.02;100141.00;5035675;28;20075;-70
2021/12/02 09:57:52;;;;;;;5.60;1.40;;;;;;;14.42;58.04;100129.88;5053144;28;20075;-70
2021/12/02 10:00:23;;;;;;;2.22;1.10;;;;;;;14.47;58.33;100143.59;5034497;28;20043;-70
2021/12/02 10:03:03;;;;;;;2.80;1.27;;;;;;;14.48;58.11;100137.47;5035073;28;20037;-71
2021/12/02 10:05:49;;;;;;;2.30;1.10;;;;;;;14.49;57.77;100144.38;5053003;28;20040;-71
2021/12/02 10:08:23;;;;;;;3.85;1.25;;;;;;;14.38;58.26;100126.56;5035315;28;20036;-70
2021/12/02 10:11:02;;;;;;;2.85;1.20;;;;;;;14.49;58.31;100152.22;5031476;28;20128;-71
2021/12/02 10:13:51;;;;;;;2.95;1.00;;;;;;;14.50;57.94;100151.31;5032057;28;20025;-69
2021/12/02 10:16:32;;;;;;;2.58;1.25;;;;;;;14.50;57.85;100149.53;5033555;28;20116;-71
2021/12/02 10:19:12;;;;;;;3.90;1.10;;;;;;;14.43;57.84;100144.63;5032262;28;20032;-71
2021/12/02 10:21:43;;;;;;;3.47;1.20;;;;;;;14.50;57.64;100164.38;5033300;28;20029;-70
2021/12/02 10:24:25;;;;;;;1.42;0.90;;;;;;;14.50;57.73;100162.59;5031902;28;20048;-70
2021/12/02 10:26:55;;;;;;;2.80;1.35;;;;;;;14.49;57.77;100170.50;5033369;28;20026;-71
2021/12/02 10:29:22;;;;;;;2.67;1.00;;;;;;;14.50;57.85;100167.81;5031765;28;20025;-71
2021/12/02 10:32:12;;;;;;;2.28;0.90;;;;;;;14.51;57.75;100172.13;5032768;28;20418;-70
2021/12/02 10:34:52;;;;;;;1.83;0.90;;;;;;;14.50;57.88;100167.81;5031873;28;20431;-70
2021/12/02 10:37:19;;;;;;;2.75;1.10;;;;;;;14.46;57.76;100160.19;5031943;28;20108;-71
2021/12/02 10:40:04;;;;;;;1.85;0.93;;;;;;;14.41;57.66;100155.16;5027664;28;20103;-71
2021/12/02 10:42:32;;;;;;;2.35;1.27;;;;;;;14.49;57.96;100175.72;5036787;28;20029;-70
2021/12/02 10:45:01;;;;;;;3.38;1.17;;;;;;;14.48;57.61;100179.25;5019532;28;20041;-70
2021/12/02 10:47:27;;;;;;;3.30;1.15;;;;;;;14.49;58.16;100184.38;5036797;28;20030;-70
2021/12/02 10:50:05;;;;;;;2.50;1.00;;;;;;;14.46;57.91;100181.06;5019237;28;20037;-71
2021/12/02 10:52:32;;;;;;;4.05;1.40;;;;;;;14.47;57.68;100182.75;5019410;28;20136;-70
2021/12/02 10:55:02;;;;;;;5.55;1.08;;;;;;;14.48;57.80;100189.69;5002633;28;20464;-70
2021/12/02 10:57:30;;;;;;;4.07;1.20;;;;;;;14.47;57.70;100183.59;5036770;28;20034;-70
2021/12/02 11:00:07;;;;;;;2.20;1.10;;;;;;;14.46;57.51;100183.66;5018843;28;20047;-70
2021/12/02 11:02:39;;;;;;;3.75;1.10;;;;;;;14.44;57.60;100173.31;5036696;28;20037;-71
2021/12/02 11:05:28;;;;;;;2.65;1.13;;;;;;;14.49;57.78;100189.59;5018874;28;20033;-71
2021/12/02 11:07:57;;;;;;;2.53;0.93;;;;;;;14.47;57.60;100182.75;5018898;28;20410;-71
2021/12/02 11:10:25;;;;;;;3.03;1.15;;;;;;;14.47;57.51;100188.81;5023107;28;20053;-70
2021/12/02 11:12:54;;;;;;;3.35;1.25;;;;;;;14.48;57.75;100187.06;5035407;28;20052;-71
2021/12/02 11:15:22;;;;;;;2.75;1.10;;;;;;;14.45;57.61;100187.19;5035368;28;20550;-70
2021/12/02 11:17:54;;;;;;;3.42;1.15;;;;;;;14.48;58.01;100197.50;5035287;28;20522;-68
2021/12/02 11:20:24;;;;;;;2.05;0.90;;;;;;;14.46;57.86;100204.56;5034417;28;20029;-69
2021/12/02 11:23:13;;;;;;;1.95;1.10;;;;;;;14.50;58.06;100209.59;5027458;28;20038;-70
2021/12/02 11:25:54;;;;;;;1.58;0.82;;;;;;;14.51;57.92;100203.47;5040484;28;20037;-71
2021/12/02 11:28:23;;;;;;;1.88;1.25;;;;;;;14.47;58.30;100201.03;5036241;28;20036;-70
2021/12/02 11:30:48;;;;;;;2.95;1.13;;;;;;;14.49;57.98;100207.06;5021714;28;20387;-70
2021/12/02 11:33:18;;;;;;;2.83;1.07;;;;;;;14.49;57.95;100210.50;5035853;28;20041;-70
2021/12/02 11:35:46;;;;;;;3.00;1.10;;;;;;;14.44;57.86;100209.00;5019025;28;20033;-71
2021/12/02 11:38:16;;;;;;;1.75;0.90;;;;;;;14.48;58.32;100214.03;5040987;28;20029;-70
2021/12/02 11:40:51;;;;;;;1.80;0.80;;;;;;;14.48;58.31;100214.03;5024564;28;20067;-71
2021/12/02 11:43:18;;;;;;;2.38;0.98;;;;;;;14.50;58.21;100208.75;5026583;28;20481;-70
2021/12/02 11:45:47;;;;;;;2.83;1.00;;;;;;;14.51;58.72;100205.22;5045599;28;20378;-71
2021/12/02 11:48:14;;;;;;;1.52;1.00;;;;;;;14.50;58.23;100201.75;5027284;28;20106;-71
2021/12/02 11:50:41;;;;;;;2.03;1.20;;;;;;;14.51;58.73;100205.22;5027794;28;20365;-71
2021/12/02 11:53:06;;;;;;;1.20;1.10;;;;;;;14.47;58.03;100182.75;5012378;28;20018;-71
2021/12/02 11:55:37;;;;;;;2.37;0.80;;;;;;;14.52;58.41;100191.25;5044148;28;20053;-70
2021/12/02 11:58:04;;;;;;;2.20;1.00;;;;;;;14.49;57.71;100199.22;5027207;28;20366;-71
2021/12/02 12:00:30;;;;;;;3.20;0.88;;;;;;;14.50;57.81;100190.47;5045964;28;20037;-70